sensor_id;sensor_type;location;lat;lon;timestamp;P1;durP1;ratioP1;P2;durP2;ratioP2
55913;SDS011;58179;48.776;9.124;2022-08-16T00:00:21;5.10;;;3.58;;
55913;SDS011;58179;48.776;9.124;2022-08-16T00:02:50;5.13;;;3.33;;
55913;SDS011;58179;48.776;9.124;2022-08-16T00:05:17;5.57;;;3.55;;
55913;SDS011;58179;48.776;9.124;2022-08-16T00:07:45;4.18;;;3.33;;
55913;SDS011;58179;48.776;9.124;2022-08-16T00:10:13;4.33;;;3.20;;
55913;SDS011;58179;48.776;9.124;2022-08-16T00:12:41;7.15;;;3.38;;
55913;SDS011;58179;48.776;9.124;2022-08-16T00:15:09;6.18;;;3.40;;
55913;SDS011;58179;48.776;9.124;2022-08-16T00:17:39;4.18;;;2.88;;
55913;SDS011;58179;48.776;9.124;2022-08-16T00:20:06;5.72;;;3.22;;
55913;SDS011;58179;48.776;9.124;2022-08-16T00:22:35;4.60;;;3.23;;
55913;SDS011;58179;48.776;9.124;2022-08-16T00:25:03;6.57;;;3.40;;
55913;SDS011;58179;48.776;9.124;2022-08-16T00:27:32;7.32;;;3.42;;
55913;SDS011;58179;48.776;9.124;2022-08-16T00:29:58;6.85;;;3.60;;
55913;SDS011;58179;48.776;9.124;2022-08-16T00:32:24;4.97;;;3.65;;
55913;SDS011;58179;48.776;9.124;2022-08-16T00:34:50;5.00;;;3.50;;
55913;SDS011;58179;48.776;9.124;2022-08-16T00:37:16;5.43;;;3.13;;
55913;SDS011;58179;48.776;9.124;2022-08-16T00:39:44;5.38;;;3.72;;
55913;SDS011;58179;48.776;9.124;2022-08-16T00:42:11;4.28;;;3.20;;
55913;SDS011;58179;48.776;9.124;2022-08-16T00:44:38;4.77;;;3.33;;
55913;SDS011;58179;48.776;9.124;2022-08-16T00:47:10;5.43;;;3.40;;
55913;SDS011;58179;48.776;9.124;2022-08-16T00:49:41;5.88;;;3.75;;
55913;SDS011;58179;48.776;9.124;2022-08-16T00:52:07;5.63;;;3.72;;
55913;SDS011;58179;48.776;9.124;2022-08-16T00:54:33;5.20;;;3.42;;
55913;SDS011;58179;48.776;9.124;2022-08-16T00:57:00;4.80;;;3.65;;
55913;SDS011;58179;48.776;9.124;2022-08-16T00:59:28;7.65;;;3.78;;
55913;SDS011;58179;48.776;9.124;2022-08-16T01:01:58;7.03;;;3.47;;
55913;SDS011;58179;48.776;9.124;2022-08-16T01:04:26;5.43;;;3.57;;
55913;SDS011;58179;48.776;9.124;2022-08-16T01:06:53;7.60;;;3.72;;
55913;SDS011;58179;48.776;9.124;2022-08-16T01:09:19;9.98;;;4.00;;
55913;SDS011;58179;48.776;9.124;2022-08-16T01:11:46;6.38;;;3.67;;
55913;SDS011;58179;48.776;9.124;2022-08-16T01:14:14;6.93;;;3.72;;
55913;SDS011;58179;48.776;9.124;2022-08-16T01:16:46;5.80;;;4.00;;
55913;SDS011;58179;48.776;9.124;2022-08-16T01:19:16;7.00;;;3.92;;
55913;SDS011;58179;48.776;9.124;2022-08-16T01:24:27;9.32;;;3.65;;
55913;SDS011;58179;48.776;9.124;2022-08-16T01:26:59;4.80;;;3.70;;
55913;SDS011;58179;48.776;9.124;2022-08-16T01:29:30;7.43;;;3.80;;
55913;SDS011;58179;48.776;9.124;2022-08-16T01:32:02;8.57;;;3.72;;
55913;SDS011;58179;48.776;9.124;2022-08-16T01:34:28;5.68;;;4.15;;
55913;SDS011;58179;48.776;9.124;2022-08-16T01:36:56;6.72;;;3.75;;
55913;SDS011;58179;48.776;9.124;2022-08-16T01:39:29;8.05;;;3.67;;
55913;SDS011;58179;48.776;9.124;2022-08-16T01:41:55;5.20;;;3.90;;
55913;SDS011;58179;48.776;9.124;2022-08-16T01:44:22;7.07;;;4.05;;
55913;SDS011;58179;48.776;9.124;2022-08-16T01:46:48;6.07;;;3.83;;
55913;SDS011;58179;48.776;9.124;2022-08-16T01:49:19;7.32;;;3.90;;
55913;SDS011;58179;48.776;9.124;2022-08-16T01:51:49;5.78;;;4.10;;
55913;SDS011;58179;48.776;9.124;2022-08-16T01:54:21;6.07;;;4.47;;
55913;SDS011;58179;48.776;9.124;2022-08-16T01:56:49;8.20;;;4.30;;
55913;SDS011;58179;48.776;9.124;2022-08-16T01:59:15;5.15;;;3.85;;
55913;SDS011;58179;48.776;9.124;2022-08-16T02:01:42;6.18;;;3.65;;
55913;SDS011;58179;48.776;9.124;2022-08-16T02:04:09;5.53;;;3.60;;
55913;SDS011;58179;48.776;9.124;2022-08-16T02:06:36;5.13;;;3.73;;
55913;SDS011;58179;48.776;9.124;2022-08-16T02:09:02;6.60;;;3.95;;
55913;SDS011;58179;48.776;9.124;2022-08-16T02:11:29;5.38;;;3.50;;
55913;SDS011;58179;48.776;9.124;2022-08-16T02:13:57;4.65;;;3.70;;
55913;SDS011;58179;48.776;9.124;2022-08-16T02:16:23;4.50;;;3.53;;
55913;SDS011;58179;48.776;9.124;2022-08-16T02:18:50;5.47;;;3.80;;
55913;SDS011;58179;48.776;9.124;2022-08-16T02:21:17;4.63;;;3.53;;
55913;SDS011;58179;48.776;9.124;2022-08-16T02:23:43;7.93;;;4.18;;
55913;SDS011;58179;48.776;9.124;2022-08-16T02:26:10;8.25;;;3.92;;
55913;SDS011;58179;48.776;9.124;2022-08-16T02:28:37;5.85;;;3.80;;
55913;SDS011;58179;48.776;9.124;2022-08-16T02:31:05;6.75;;;3.55;;
55913;SDS011;58179;48.776;9.124;2022-08-16T02:33:34;6.10;;;3.78;;
55913;SDS011;58179;48.776;9.124;2022-08-16T02:36:02;5.60;;;4.07;;
55913;SDS011;58179;48.776;9.124;2022-08-16T02:38:29;5.18;;;3.38;;
55913;SDS011;58179;48.776;9.124;2022-08-16T02:40:56;5.15;;;3.63;;
55913;SDS011;58179;48.776;9.124;2022-08-16T02:43:23;7.45;;;3.72;;
55913;SDS011;58179;48.776;9.124;2022-08-16T02:45:50;4.75;;;3.65;;
55913;SDS011;58179;48.776;9.124;2022-08-16T02:48:18;7.00;;;3.65;;
55913;SDS011;58179;48.776;9.124;2022-08-16T02:50:44;9.70;;;4.10;;
55913;SDS011;58179;48.776;9.124;2022-08-16T02:53:10;5.33;;;3.93;;
55913;SDS011;58179;48.776;9.124;2022-08-16T02:55:36;4.27;;;3.60;;
55913;SDS011;58179;48.776;9.124;2022-08-16T02:58:02;5.43;;;3.60;;
55913;SDS011;58179;48.776;9.124;2022-08-16T03:00:29;5.32;;;3.80;;
55913;SDS011;58179;48.776;9.124;2022-08-16T03:02:56;5.50;;;3.67;;
55913;SDS011;58179;48.776;9.124;2022-08-16T03:05:23;5.60;;;4.22;;
55913;SDS011;58179;48.776;9.124;2022-08-16T03:07:50;5.05;;;3.80;;
55913;SDS011;58179;48.776;9.124;2022-08-16T03:10:16;7.72;;;3.80;;
55913;SDS011;58179;48.776;9.124;2022-08-16T03:12:43;5.95;;;3.70;;
55913;SDS011;58179;48.776;9.124;2022-08-16T03:15:11;7.40;;;4.20;;
55913;SDS011;58179;48.776;9.124;2022-08-16T03:17:38;7.25;;;4.05;;
55913;SDS011;58179;48.776;9.124;2022-08-16T03:20:06;6.43;;;3.67;;
55913;SDS011;58179;48.776;9.124;2022-08-16T03:22:38;5.82;;;3.90;;
55913;SDS011;58179;48.776;9.124;2022-08-16T03:25:05;6.47;;;3.83;;
55913;SDS011;58179;48.776;9.124;2022-08-16T03:27:34;6.97;;;4.10;;
55913;SDS011;58179;48.776;9.124;2022-08-16T03:30:04;7.50;;;4.03;;
55913;SDS011;58179;48.776;9.124;2022-08-16T03:32:34;5.60;;;3.47;;
55913;SDS011;58179;48.776;9.124;2022-08-16T03:35:00;6.13;;;4.10;;
55913;SDS011;58179;48.776;9.124;2022-08-16T03:37:26;6.35;;;3.78;;
55913;SDS011;58179;48.776;9.124;2022-08-16T03:39:53;4.80;;;3.90;;
55913;SDS011;58179;48.776;9.124;2022-08-16T03:42:19;6.73;;;3.77;;
55913;SDS011;58179;48.776;9.124;2022-08-16T03:44:45;4.35;;;3.40;;
55913;SDS011;58179;48.776;9.124;2022-08-16T03:47:11;6.78;;;3.80;;
55913;SDS011;58179;48.776;9.124;2022-08-16T03:49:37;6.35;;;3.88;;
55913;SDS011;58179;48.776;9.124;2022-08-16T03:52:05;7.10;;;4.00;;
55913;SDS011;58179;48.776;9.124;2022-08-16T03:54:31;6.22;;;3.45;;
55913;SDS011;58179;48.776;9.124;2022-08-16T03:56:58;5.35;;;3.92;;
55913;SDS011;58179;48.776;9.124;2022-08-16T03:59:25;6.25;;;4.00;;
55913;SDS011;58179;48.776;9.124;2022-08-16T04:01:51;8.32;;;4.38;;
55913;SDS011;58179;48.776;9.124;2022-08-16T04:04:17;6.55;;;4.30;;
55913;SDS011;58179;48.776;9.124;2022-08-16T04:06:43;6.03;;;4.60;;
55913;SDS011;58179;48.776;9.124;2022-08-16T04:09:09;7.50;;;4.70;;
55913;SDS011;58179;48.776;9.124;2022-08-16T04:11:36;9.17;;;4.83;;
55913;SDS011;58179;48.776;9.124;2022-08-16T04:14:03;8.02;;;4.28;;
55913;SDS011;58179;48.776;9.124;2022-08-16T04:16:29;7.50;;;4.47;;
55913;SDS011;58179;48.776;9.124;2022-08-16T04:18:56;6.20;;;4.50;;
55913;SDS011;58179;48.776;9.124;2022-08-16T04:21:22;7.50;;;4.30;;
55913;SDS011;58179;48.776;9.124;2022-08-16T04:23:48;6.15;;;4.35;;
55913;SDS011;58179;48.776;9.124;2022-08-16T04:26:14;7.70;;;4.63;;
55913;SDS011;58179;48.776;9.124;2022-08-16T04:28:40;5.20;;;3.73;;
55913;SDS011;58179;48.776;9.124;2022-08-16T04:31:08;6.70;;;4.35;;
55913;SDS011;58179;48.776;9.124;2022-08-16T04:33:33;7.47;;;4.40;;
55913;SDS011;58179;48.776;9.124;2022-08-16T04:35:59;8.30;;;4.60;;
55913;SDS011;58179;48.776;9.124;2022-08-16T04:38:26;7.22;;;4.43;;
55913;SDS011;58179;48.776;9.124;2022-08-16T04:40:51;6.00;;;4.25;;
55913;SDS011;58179;48.776;9.124;2022-08-16T04:43:17;7.57;;;4.00;;
55913;SDS011;58179;48.776;9.124;2022-08-16T04:45:43;7.65;;;5.07;;
55913;SDS011;58179;48.776;9.124;2022-08-16T04:48:11;5.80;;;4.03;;
55913;SDS011;58179;48.776;9.124;2022-08-16T04:50:37;7.43;;;3.85;;
55913;SDS011;58179;48.776;9.124;2022-08-16T04:53:03;8.05;;;4.40;;
55913;SDS011;58179;48.776;9.124;2022-08-16T04:55:29;6.72;;;4.03;;
55913;SDS011;58179;48.776;9.124;2022-08-16T04:57:56;9.02;;;4.60;;
55913;SDS011;58179;48.776;9.124;2022-08-16T05:00:23;9.13;;;4.47;;
55913;SDS011;58179;48.776;9.124;2022-08-16T05:02:58;6.20;;;3.67;;
55913;SDS011;58179;48.776;9.124;2022-08-16T05:05:28;5.43;;;3.85;;
55913;SDS011;58179;48.776;9.124;2022-08-16T05:07:54;4.88;;;3.83;;
55913;SDS011;58179;48.776;9.124;2022-08-16T05:10:20;7.30;;;4.05;;
55913;SDS011;58179;48.776;9.124;2022-08-16T05:12:46;10.07;;;4.25;;
55913;SDS011;58179;48.776;9.124;2022-08-16T05:15:12;8.00;;;4.30;;
55913;SDS011;58179;48.776;9.124;2022-08-16T05:17:38;7.20;;;4.22;;
55913;SDS011;58179;48.776;9.124;2022-08-16T05:20:05;6.78;;;3.95;;
55913;SDS011;58179;48.776;9.124;2022-08-16T05:22:35;5.10;;;4.07;;
55913;SDS011;58179;48.776;9.124;2022-08-16T05:25:02;6.88;;;4.10;;
55913;SDS011;58179;48.776;9.124;2022-08-16T05:27:29;10.30;;;4.07;;
55913;SDS011;58179;48.776;9.124;2022-08-16T05:29:55;7.30;;;4.10;;
55913;SDS011;58179;48.776;9.124;2022-08-16T05:32:21;6.57;;;4.15;;
55913;SDS011;58179;48.776;9.124;2022-08-16T05:34:47;7.93;;;4.07;;
55913;SDS011;58179;48.776;9.124;2022-08-16T05:37:13;10.07;;;4.43;;
55913;SDS011;58179;48.776;9.124;2022-08-16T05:39:40;7.00;;;4.00;;
55913;SDS011;58179;48.776;9.124;2022-08-16T05:42:06;9.30;;;4.10;;
55913;SDS011;58179;48.776;9.124;2022-08-16T05:44:32;7.30;;;4.63;;
55913;SDS011;58179;48.776;9.124;2022-08-16T05:46:59;8.53;;;4.20;;
55913;SDS011;58179;48.776;9.124;2022-08-16T05:49:26;6.95;;;3.83;;
55913;SDS011;58179;48.776;9.124;2022-08-16T05:51:54;6.63;;;3.90;;
55913;SDS011;58179;48.776;9.124;2022-08-16T05:54:21;6.82;;;3.75;;
55913;SDS011;58179;48.776;9.124;2022-08-16T05:56:49;5.97;;;3.92;;
55913;SDS011;58179;48.776;9.124;2022-08-16T05:59:15;5.28;;;3.88;;
55913;SDS011;58179;48.776;9.124;2022-08-16T06:01:42;5.40;;;3.67;;
55913;SDS011;58179;48.776;9.124;2022-08-16T06:04:09;8.80;;;3.95;;
55913;SDS011;58179;48.776;9.124;2022-08-16T06:06:38;4.28;;;3.55;;
55913;SDS011;58179;48.776;9.124;2022-08-16T06:09:06;5.70;;;3.60;;
55913;SDS011;58179;48.776;9.124;2022-08-16T06:11:32;6.10;;;4.03;;
55913;SDS011;58179;48.776;9.124;2022-08-16T06:13:59;8.93;;;4.28;;
55913;SDS011;58179;48.776;9.124;2022-08-16T06:16:25;7.60;;;3.95;;
55913;SDS011;58179;48.776;9.124;2022-08-16T06:18:51;6.03;;;4.07;;
55913;SDS011;58179;48.776;9.124;2022-08-16T06:21:17;8.38;;;4.10;;
55913;SDS011;58179;48.776;9.124;2022-08-16T06:23:43;7.18;;;4.05;;
55913;SDS011;58179;48.776;9.124;2022-08-16T06:26:09;7.38;;;4.00;;
55913;SDS011;58179;48.776;9.124;2022-08-16T06:28:35;6.97;;;4.20;;
55913;SDS011;58179;48.776;9.124;2022-08-16T06:31:03;8.68;;;4.10;;
55913;SDS011;58179;48.776;9.124;2022-08-16T06:33:29;7.80;;;4.00;;
55913;SDS011;58179;48.776;9.124;2022-08-16T06:35:56;7.50;;;4.60;;
55913;SDS011;58179;48.776;9.124;2022-08-16T06:38:22;9.63;;;4.40;;
55913;SDS011;58179;48.776;9.124;2022-08-16T06:40:48;7.82;;;4.25;;
55913;SDS011;58179;48.776;9.124;2022-08-16T06:43:15;7.78;;;4.22;;
55913;SDS011;58179;48.776;9.124;2022-08-16T06:45:43;8.18;;;4.13;;
55913;SDS011;58179;48.776;9.124;2022-08-16T06:48:11;6.50;;;4.30;;
55913;SDS011;58179;48.776;9.124;2022-08-16T06:50:37;7.10;;;4.13;;
55913;SDS011;58179;48.776;9.124;2022-08-16T06:53:03;7.32;;;4.40;;
55913;SDS011;58179;48.776;9.124;2022-08-16T06:55:30;7.00;;;4.27;;
55913;SDS011;58179;48.776;9.124;2022-08-16T06:57:58;9.70;;;4.33;;
55913;SDS011;58179;48.776;9.124;2022-08-16T07:00:25;9.43;;;4.65;;
55913;SDS011;58179;48.776;9.124;2022-08-16T07:02:51;8.75;;;4.10;;
55913;SDS011;58179;48.776;9.124;2022-08-16T07:05:19;10.20;;;4.13;;
55913;SDS011;58179;48.776;9.124;2022-08-16T07:07:46;7.90;;;3.80;;
55913;SDS011;58179;48.776;9.124;2022-08-16T07:10:15;8.10;;;4.07;;
55913;SDS011;58179;48.776;9.124;2022-08-16T07:12:43;8.38;;;4.10;;
55913;SDS011;58179;48.776;9.124;2022-08-16T07:15:09;6.78;;;3.85;;
55913;SDS011;58179;48.776;9.124;2022-08-16T07:17:35;10.13;;;4.90;;
55913;SDS011;58179;48.776;9.124;2022-08-16T07:20:02;10.57;;;4.80;;
55913;SDS011;58179;48.776;9.124;2022-08-16T07:22:32;10.20;;;4.40;;
55913;SDS011;58179;48.776;9.124;2022-08-16T07:24:58;8.45;;;4.82;;
55913;SDS011;58179;48.776;9.124;2022-08-16T07:27:25;5.88;;;4.18;;
55913;SDS011;58179;48.776;9.124;2022-08-16T07:29:51;8.40;;;4.40;;
55913;SDS011;58179;48.776;9.124;2022-08-16T07:32:17;10.38;;;4.85;;
55913;SDS011;58179;48.776;9.124;2022-08-16T07:34:44;10.30;;;5.20;;
55913;SDS011;58179;48.776;9.124;2022-08-16T07:37:11;10.27;;;4.90;;
55913;SDS011;58179;48.776;9.124;2022-08-16T07:39:38;12.93;;;5.13;;
55913;SDS011;58179;48.776;9.124;2022-08-16T07:42:04;11.77;;;4.97;;
55913;SDS011;58179;48.776;9.124;2022-08-16T07:44:31;9.57;;;4.63;;
55913;SDS011;58179;48.776;9.124;2022-08-16T07:46:56;7.47;;;4.57;;
55913;SDS011;58179;48.776;9.124;2022-08-16T07:49:23;9.07;;;4.63;;
55913;SDS011;58179;48.776;9.124;2022-08-16T07:51:49;6.80;;;4.40;;
55913;SDS011;58179;48.776;9.124;2022-08-16T07:54:15;13.30;;;5.20;;
55913;SDS011;58179;48.776;9.124;2022-08-16T07:56:43;12.23;;;4.78;;
55913;SDS011;58179;48.776;9.124;2022-08-16T07:59:09;7.53;;;4.43;;
55913;SDS011;58179;48.776;9.124;2022-08-16T08:01:36;8.48;;;4.30;;
55913;SDS011;58179;48.776;9.124;2022-08-16T08:04:03;11.52;;;4.72;;
55913;SDS011;58179;48.776;9.124;2022-08-16T08:06:30;6.88;;;4.75;;
55913;SDS011;58179;48.776;9.124;2022-08-16T08:08:57;11.10;;;4.47;;
55913;SDS011;58179;48.776;9.124;2022-08-16T08:11:24;7.77;;;4.90;;
55913;SDS011;58179;48.776;9.124;2022-08-16T08:13:54;10.10;;;4.68;;
55913;SDS011;58179;48.776;9.124;2022-08-16T08:16:23;8.47;;;4.33;;
55913;SDS011;58179;48.776;9.124;2022-08-16T08:18:50;8.35;;;4.80;;
55913;SDS011;58179;48.776;9.124;2022-08-16T08:21:19;6.97;;;4.20;;
55913;SDS011;58179;48.776;9.124;2022-08-16T08:23:45;10.65;;;4.78;;
55913;SDS011;58179;48.776;9.124;2022-08-16T08:26:12;8.63;;;4.15;;
55913;SDS011;58179;48.776;9.124;2022-08-16T08:28:39;6.45;;;4.22;;
55913;SDS011;58179;48.776;9.124;2022-08-16T08:31:07;6.75;;;3.95;;
55913;SDS011;58179;48.776;9.124;2022-08-16T08:33:33;5.68;;;3.92;;
55913;SDS011;58179;48.776;9.124;2022-08-16T08:36:00;6.03;;;4.53;;
55913;SDS011;58179;48.776;9.124;2022-08-16T08:38:31;8.23;;;4.07;;
55913;SDS011;58179;48.776;9.124;2022-08-16T08:40:57;7.15;;;3.90;;
55913;SDS011;58179;48.776;9.124;2022-08-16T08:43:23;8.10;;;4.10;;
55913;SDS011;58179;48.776;9.124;2022-08-16T08:45:50;5.72;;;3.80;;
55913;SDS011;58179;48.776;9.124;2022-08-16T08:48:19;6.32;;;3.88;;
55913;SDS011;58179;48.776;9.124;2022-08-16T08:50:46;7.45;;;4.00;;
55913;SDS011;58179;48.776;9.124;2022-08-16T08:53:13;8.50;;;4.28;;
55913;SDS011;58179;48.776;9.124;2022-08-16T08:55:40;5.27;;;3.60;;
55913;SDS011;58179;48.776;9.124;2022-08-16T08:58:06;5.70;;;3.60;;
55913;SDS011;58179;48.776;9.124;2022-08-16T09:00:33;7.57;;;4.30;;
55913;SDS011;58179;48.776;9.124;2022-08-16T09:03:03;8.18;;;4.60;;
55913;SDS011;58179;48.776;9.124;2022-08-16T09:05:30;9.30;;;4.65;;
55913;SDS011;58179;48.776;9.124;2022-08-16T09:07:56;8.27;;;3.95;;
55913;SDS011;58179;48.776;9.124;2022-08-16T09:10:22;6.20;;;4.28;;
55913;SDS011;58179;48.776;9.124;2022-08-16T09:12:48;6.22;;;4.30;;
55913;SDS011;58179;48.776;9.124;2022-08-16T09:15:14;7.27;;;3.90;;
55913;SDS011;58179;48.776;9.124;2022-08-16T09:17:41;10.15;;;4.63;;
55913;SDS011;58179;48.776;9.124;2022-08-16T09:20:08;11.10;;;4.50;;
55913;SDS011;58179;48.776;9.124;2022-08-16T09:22:39;5.50;;;3.97;;
55913;SDS011;58179;48.776;9.124;2022-08-16T09:25:06;5.15;;;3.85;;
55913;SDS011;58179;48.776;9.124;2022-08-16T09:27:33;7.10;;;4.35;;
55913;SDS011;58179;48.776;9.124;2022-08-16T09:30:00;6.30;;;3.80;;
55913;SDS011;58179;48.776;9.124;2022-08-16T09:32:26;9.63;;;4.20;;
55913;SDS011;58179;48.776;9.124;2022-08-16T09:34:53;6.10;;;4.38;;
55913;SDS011;58179;48.776;9.124;2022-08-16T09:37:18;9.32;;;4.38;;
55913;SDS011;58179;48.776;9.124;2022-08-16T09:39:46;7.85;;;4.43;;
55913;SDS011;58179;48.776;9.124;2022-08-16T09:42:12;9.13;;;4.05;;
55913;SDS011;58179;48.776;9.124;2022-08-16T09:44:39;8.33;;;3.73;;
55913;SDS011;58179;48.776;9.124;2022-08-16T09:47:05;6.25;;;3.72;;
55913;SDS011;58179;48.776;9.124;2022-08-16T09:49:32;6.60;;;3.95;;
55913;SDS011;58179;48.776;9.124;2022-08-16T09:51:57;6.32;;;3.60;;
55913;SDS011;58179;48.776;9.124;2022-08-16T09:54:24;5.60;;;3.88;;
55913;SDS011;58179;48.776;9.124;2022-08-16T09:56:53;6.90;;;4.10;;
55913;SDS011;58179;48.776;9.124;2022-08-16T09:59:20;8.05;;;4.28;;
55913;SDS011;58179;48.776;9.124;2022-08-16T10:01:48;6.32;;;3.85;;
55913;SDS011;58179;48.776;9.124;2022-08-16T10:04:15;6.47;;;4.00;;
55913;SDS011;58179;48.776;9.124;2022-08-16T10:06:41;11.63;;;4.53;;
55913;SDS011;58179;48.776;9.124;2022-08-16T10:09:10;6.15;;;3.83;;
55913;SDS011;58179;48.776;9.124;2022-08-16T10:11:38;5.20;;;3.70;;
55913;SDS011;58179;48.776;9.124;2022-08-16T10:14:25;5.53;;;3.88;;
55913;SDS011;58179;48.776;9.124;2022-08-16T10:16:55;5.35;;;4.07;;
55913;SDS011;58179;48.776;9.124;2022-08-16T10:19:23;12.70;;;4.30;;
55913;SDS011;58179;48.776;9.124;2022-08-16T10:21:49;5.43;;;3.77;;
55913;SDS011;58179;48.776;9.124;2022-08-16T10:24:15;6.43;;;3.83;;
55913;SDS011;58179;48.776;9.124;2022-08-16T10:26:43;6.93;;;3.60;;
55913;SDS011;58179;48.776;9.124;2022-08-16T10:29:10;6.85;;;4.15;;
55913;SDS011;58179;48.776;9.124;2022-08-16T10:31:38;9.70;;;4.45;;
55913;SDS011;58179;48.776;9.124;2022-08-16T10:34:04;6.95;;;4.28;;
55913;SDS011;58179;48.776;9.124;2022-08-16T10:36:30;4.75;;;3.50;;
55913;SDS011;58179;48.776;9.124;2022-08-16T10:38:56;8.93;;;4.45;;
55913;SDS011;58179;48.776;9.124;2022-08-16T10:41:22;9.30;;;4.38;;
55913;SDS011;58179;48.776;9.124;2022-08-16T10:43:48;5.75;;;3.90;;
55913;SDS011;58179;48.776;9.124;2022-08-16T10:46:15;6.55;;;3.60;;
55913;SDS011;58179;48.776;9.124;2022-08-16T10:48:43;5.57;;;3.72;;
55913;SDS011;58179;48.776;9.124;2022-08-16T10:51:11;5.28;;;3.50;;
55913;SDS011;58179;48.776;9.124;2022-08-16T10:53:37;7.00;;;3.80;;
55913;SDS011;58179;48.776;9.124;2022-08-16T10:56:04;6.35;;;3.70;;
55913;SDS011;58179;48.776;9.124;2022-08-16T10:58:32;5.60;;;4.07;;
55913;SDS011;58179;48.776;9.124;2022-08-16T11:00:59;6.55;;;4.15;;
55913;SDS011;58179;48.776;9.124;2022-08-16T11:03:26;7.20;;;3.80;;
55913;SDS011;58179;48.776;9.124;2022-08-16T11:05:54;7.25;;;3.92;;
55913;SDS011;58179;48.776;9.124;2022-08-16T11:08:20;7.20;;;3.65;;
55913;SDS011;58179;48.776;9.124;2022-08-16T11:10:47;7.57;;;3.50;;
55913;SDS011;58179;48.776;9.124;2022-08-16T11:13:14;10.00;;;4.15;;
55913;SDS011;58179;48.776;9.124;2022-08-16T11:15:44;4.25;;;3.15;;
55913;SDS011;58179;48.776;9.124;2022-08-16T11:18:10;8.77;;;4.05;;
55913;SDS011;58179;48.776;9.124;2022-08-16T11:20:38;6.65;;;3.55;;
55913;SDS011;58179;48.776;9.124;2022-08-16T11:23:06;5.65;;;3.83;;
55913;SDS011;58179;48.776;9.124;2022-08-16T11:25:32;6.10;;;3.47;;
55913;SDS011;58179;48.776;9.124;2022-08-16T11:27:59;5.93;;;3.78;;
55913;SDS011;58179;48.776;9.124;2022-08-16T11:30:26;10.18;;;4.10;;
55913;SDS011;58179;48.776;9.124;2022-08-16T11:32:53;5.60;;;3.50;;
55913;SDS011;58179;48.776;9.124;2022-08-16T11:35:21;4.47;;;3.38;;
55913;SDS011;58179;48.776;9.124;2022-08-16T11:37:51;5.63;;;3.42;;
55913;SDS011;58179;48.776;9.124;2022-08-16T11:40:22;8.75;;;3.88;;
55913;SDS011;58179;48.776;9.124;2022-08-16T11:42:50;7.15;;;3.67;;
55913;SDS011;58179;48.776;9.124;2022-08-16T11:45:17;7.72;;;3.30;;
55913;SDS011;58179;48.776;9.124;2022-08-16T11:47:44;7.63;;;3.63;;
55913;SDS011;58179;48.776;9.124;2022-08-16T11:50:12;5.20;;;3.30;;
55913;SDS011;58179;48.776;9.124;2022-08-16T11:52:38;5.95;;;3.47;;
55913;SDS011;58179;48.776;9.124;2022-08-16T11:55:05;5.85;;;3.40;;
55913;SDS011;58179;48.776;9.124;2022-08-16T11:57:37;8.13;;;3.72;;
55913;SDS011;58179;48.776;9.124;2022-08-16T12:00:04;7.90;;;3.90;;
55913;SDS011;58179;48.776;9.124;2022-08-16T12:02:35;4.72;;;3.38;;
55913;SDS011;58179;48.776;9.124;2022-08-16T12:05:01;4.82;;;3.35;;
55913;SDS011;58179;48.776;9.124;2022-08-16T12:07:28;6.78;;;3.38;;
55913;SDS011;58179;48.776;9.124;2022-08-16T12:09:54;7.47;;;3.70;;
55913;SDS011;58179;48.776;9.124;2022-08-16T12:12:20;4.90;;;3.42;;
55913;SDS011;58179;48.776;9.124;2022-08-16T12:14:48;7.93;;;3.60;;
55913;SDS011;58179;48.776;9.124;2022-08-16T12:17:14;6.00;;;3.25;;
55913;SDS011;58179;48.776;9.124;2022-08-16T12:19:42;5.10;;;3.00;;
55913;SDS011;58179;48.776;9.124;2022-08-16T12:22:08;6.00;;;3.25;;
55913;SDS011;58179;48.776;9.124;2022-08-16T12:24:34;5.45;;;2.85;;
55913;SDS011;58179;48.776;9.124;2022-08-16T12:27:00;5.90;;;3.63;;
55913;SDS011;58179;48.776;9.124;2022-08-16T12:29:27;5.88;;;3.20;;
55913;SDS011;58179;48.776;9.124;2022-08-16T12:31:55;6.65;;;3.30;;
55913;SDS011;58179;48.776;9.124;2022-08-16T12:34:22;5.93;;;3.53;;
55913;SDS011;58179;48.776;9.124;2022-08-16T12:36:48;7.72;;;3.92;;
55913;SDS011;58179;48.776;9.124;2022-08-16T12:39:14;5.07;;;3.10;;
55913;SDS011;58179;48.776;9.124;2022-08-16T12:41:41;7.57;;;3.60;;
55913;SDS011;58179;48.776;9.124;2022-08-16T12:44:10;5.07;;;3.13;;
55913;SDS011;58179;48.776;9.124;2022-08-16T12:46:37;7.80;;;3.78;;
55913;SDS011;58179;48.776;9.124;2022-08-16T12:49:04;4.80;;;3.08;;
55913;SDS011;58179;48.776;9.124;2022-08-16T12:51:33;4.63;;;3.15;;
55913;SDS011;58179;48.776;9.124;2022-08-16T12:54:03;5.10;;;2.92;;
55913;SDS011;58179;48.776;9.124;2022-08-16T12:56:35;5.97;;;3.22;;
55913;SDS011;58179;48.776;9.124;2022-08-16T12:59:03;7.80;;;3.00;;
55913;SDS011;58179;48.776;9.124;2022-08-16T13:01:33;5.00;;;3.15;;
55913;SDS011;58179;48.776;9.124;2022-08-16T13:04:01;5.05;;;2.92;;
55913;SDS011;58179;48.776;9.124;2022-08-16T13:06:31;4.47;;;2.75;;
55913;SDS011;58179;48.776;9.124;2022-08-16T13:09:00;6.05;;;2.88;;
55913;SDS011;58179;48.776;9.124;2022-08-16T13:11:42;6.63;;;3.10;;
55913;SDS011;58179;48.776;9.124;2022-08-16T13:14:13;5.30;;;2.97;;
55913;SDS011;58179;48.776;9.124;2022-08-16T13:16:39;4.97;;;2.80;;
55913;SDS011;58179;48.776;9.124;2022-08-16T13:19:07;6.65;;;3.25;;
55913;SDS011;58179;48.776;9.124;2022-08-16T13:21:33;5.05;;;2.88;;
55913;SDS011;58179;48.776;9.124;2022-08-16T13:23:59;5.35;;;3.00;;
55913;SDS011;58179;48.776;9.124;2022-08-16T13:26:25;5.90;;;2.70;;
55913;SDS011;58179;48.776;9.124;2022-08-16T13:28:51;7.50;;;3.00;;
55913;SDS011;58179;48.776;9.124;2022-08-16T13:31:17;4.47;;;2.58;;
55913;SDS011;58179;48.776;9.124;2022-08-16T13:33:43;4.70;;;2.38;;
55913;SDS011;58179;48.776;9.124;2022-08-16T13:36:12;4.70;;;2.83;;
55913;SDS011;58179;48.776;9.124;2022-08-16T13:38:38;5.40;;;3.10;;
55913;SDS011;58179;48.776;9.124;2022-08-16T13:41:05;3.88;;;2.38;;
55913;SDS011;58179;48.776;9.124;2022-08-16T13:43:34;8.55;;;2.80;;
55913;SDS011;58179;48.776;9.124;2022-08-16T13:46:02;4.60;;;2.90;;
55913;SDS011;58179;48.776;9.124;2022-08-16T13:48:28;4.05;;;2.58;;
55913;SDS011;58179;48.776;9.124;2022-08-16T13:50:56;2.97;;;2.10;;
55913;SDS011;58179;48.776;9.124;2022-08-16T13:53:23;3.95;;;2.58;;
55913;SDS011;58179;48.776;9.124;2022-08-16T13:55:50;5.30;;;2.70;;
55913;SDS011;58179;48.776;9.124;2022-08-16T13:58:17;6.30;;;2.30;;
55913;SDS011;58179;48.776;9.124;2022-08-16T14:00:43;6.82;;;2.40;;
55913;SDS011;58179;48.776;9.124;2022-08-16T14:03:09;7.32;;;2.75;;
55913;SDS011;58179;48.776;9.124;2022-08-16T14:05:35;5.65;;;2.70;;
55913;SDS011;58179;48.776;9.124;2022-08-16T14:08:02;8.30;;;2.72;;
55913;SDS011;58179;48.776;9.124;2022-08-16T14:10:29;2.95;;;2.20;;
55913;SDS011;58179;48.776;9.124;2022-08-16T14:12:55;5.07;;;2.50;;
55913;SDS011;58179;48.776;9.124;2022-08-16T14:15:22;3.63;;;2.53;;
55913;SDS011;58179;48.776;9.124;2022-08-16T14:17:49;3.72;;;2.40;;
55913;SDS011;58179;48.776;9.124;2022-08-16T14:20:15;3.20;;;2.17;;
55913;SDS011;58179;48.776;9.124;2022-08-16T14:22:42;6.35;;;2.90;;
55913;SDS011;58179;48.776;9.124;2022-08-16T14:25:11;6.43;;;2.40;;
55913;SDS011;58179;48.776;9.124;2022-08-16T14:27:44;5.22;;;2.70;;
55913;SDS011;58179;48.776;9.124;2022-08-16T14:30:11;3.83;;;2.65;;
55913;SDS011;58179;48.776;9.124;2022-08-16T14:32:40;6.13;;;2.58;;
55913;SDS011;58179;48.776;9.124;2022-08-16T14:35:08;5.65;;;2.92;;
55913;SDS011;58179;48.776;9.124;2022-08-16T14:37:37;5.78;;;3.05;;
55913;SDS011;58179;48.776;9.124;2022-08-16T14:40:04;6.05;;;2.60;;
55913;SDS011;58179;48.776;9.124;2022-08-16T14:42:33;4.40;;;2.78;;
55913;SDS011;58179;48.776;9.124;2022-08-16T14:45:01;4.93;;;2.55;;
55913;SDS011;58179;48.776;9.124;2022-08-16T14:47:28;4.43;;;2.80;;
55913;SDS011;58179;48.776;9.124;2022-08-16T14:49:54;6.13;;;2.92;;